createdAt,value
2022-11-01T00:01:43.389Z,100.00
2022-11-01T00:04:40.492Z,100.00
2022-11-01T00:07:37.534Z,100.00
2022-11-01T00:10:34.584Z,100.00
2022-11-01T00:13:31.751Z,100.00
2022-11-01T00:16:28.422Z,100.00
2022-11-01T00:19:25.726Z,100.00
2022-11-01T00:22:22.676Z,100.00
2022-11-01T00:25:19.836Z,100.00
2022-11-01T00:28:16.549Z,100.00
2022-11-01T00:31:14.601Z,100.00
2022-11-01T00:34:11.798Z,100.00
2022-11-01T00:37:08.718Z,100.00
2022-11-01T00:40:06.315Z,100.00
2022-11-01T00:43:03.522Z,100.00
2022-11-01T00:46:00.799Z,100.00
2022-11-01T00:48:57.596Z,100.00
2022-11-01T00:51:54.670Z,100.00
2022-11-01T00:54:51.416Z,100.00
2022-11-01T00:57:48.495Z,100.00
2022-11-01T01:00:45.624Z,100.00
2022-11-01T01:03:42.279Z,100.00
2022-11-01T01:06:39.716Z,100.00
2022-11-01T01:09:36.754Z,100.00
2022-11-01T01:12:33.234Z,100.00
2022-11-01T01:15:30.763Z,100.00
2022-11-01T01:18:27.595Z,100.00
2022-11-01T01:21:24.222Z,100.00
2022-11-01T01:24:21.538Z,100.00
2022-11-01T01:27:18.449Z,100.00
2022-11-01T01:30:15.633Z,100.00
2022-11-01T01:36:14.427Z,100.00
2022-11-01T01:39:11.877Z,100.00
2022-11-01T01:42:20.476Z,100.00
2022-11-01T01:45:36.565Z,100.00
2022-11-01T01:48:33.704Z,99.65
2022-11-01T01:51:30.650Z,99.43
2022-11-01T01:54:27.456Z,99.78
2022-11-01T01:57:25.326Z,100.00
2022-11-01T02:00:22.590Z,100.00
2022-11-01T02:03:19.809Z,100.00
2022-11-01T02:06:21.251Z,100.00
2022-11-01T02:09:18.707Z,100.00
2022-11-01T02:12:15.482Z,100.00
2022-11-01T02:15:13.658Z,100.00
2022-11-01T02:18:46.897Z,100.00
2022-11-01T02:21:46.356Z,99.73
2022-11-01T02:25:21.226Z,99.36
2022-11-01T02:28:37.355Z,99.25
2022-11-01T02:31:59.747Z,99.87
2022-11-01T02:35:35.198Z,98.63
2022-11-01T02:38:42.243Z,98.96
2022-11-01T02:41:43.102Z,97.87
2022-11-01T02:44:43.013Z,97.62
2022-11-01T02:47:40.736Z,97.69
2022-11-01T02:50:42.400Z,97.72
2022-11-01T02:53:39.892Z,96.95
2022-11-01T02:56:37.795Z,96.89
2022-11-01T02:59:48.094Z,96.08
2022-11-01T03:02:45.536Z,95.88
2022-11-01T03:05:48.700Z,95.93
2022-11-01T03:08:54.979Z,95.59
2022-11-01T03:11:57.699Z,95.49
2022-11-01T03:15:00.470Z,95.91
2022-11-01T03:18:02.413Z,94.88
2022-11-01T03:21:16.622Z,94.54
2022-11-01T03:24:19.814Z,95.66
2022-11-01T03:27:19.925Z,96.67
2022-11-01T03:30:17.006Z,97.53
2022-11-01T03:33:14.244Z,96.55
2022-11-01T03:36:14.736Z,95.84
2022-11-01T03:39:47.380Z,94.71
2022-11-01T03:42:46.245Z,95.30
2022-11-01T03:45:43.689Z,96.17
2022-11-01T03:48:41.045Z,97.51
2022-11-01T03:51:37.540Z,97.92
2022-11-01T03:54:34.959Z,97.81
2022-11-01T03:57:31.685Z,97.15
2022-11-01T04:00:31.067Z,98.06
2022-11-01T04:03:27.449Z,98.93
2022-11-01T04:06:24.643Z,98.18
2022-11-01T04:09:21.936Z,98.15
2022-11-01T04:12:18.963Z,98.13
2022-11-01T04:15:34.746Z,99.00
2022-11-01T04:18:50.373Z,98.22
2022-11-01T04:21:47.838Z,98.10
2022-11-01T04:24:44.524Z,99.16
2022-11-01T04:27:41.583Z,99.38
2022-11-01T04:30:38.929Z,99.75
2022-11-01T04:33:35.491Z,98.17
2022-11-01T04:36:33.292Z,98.39
2022-11-01T04:39:30.991Z,99.18
2022-11-01T04:42:27.866Z,99.76
2022-11-01T04:45:25.007Z,100.00
2022-11-01T04:48:21.950Z,99.86
2022-11-01T04:51:18.486Z,99.32
2022-11-01T04:54:16.220Z,98.16
2022-11-01T04:57:23.017Z,98.26
2022-11-01T05:00:19.851Z,99.77
2022-11-01T05:03:16.866Z,99.20
2022-11-01T05:06:13.796Z,100.00
2022-11-01T05:09:10.661Z,100.00
2022-11-01T05:12:08.024Z,99.92
2022-11-01T05:15:05.579Z,99.96
2022-11-01T05:18:03.482Z,99.67
2022-11-01T05:21:00.602Z,100.00
2022-11-01T05:23:57.622Z,100.00
2022-11-01T05:26:54.739Z,100.00
2022-11-01T05:29:51.668Z,100.00
2022-11-01T05:32:48.895Z,99.84
2022-11-01T05:35:45.756Z,99.75
2022-11-01T05:38:43.320Z,99.82
2022-11-01T05:41:41.224Z,99.83
2022-11-01T05:44:38.584Z,99.72
2022-11-01T05:47:35.916Z,99.88
2022-11-01T05:50:32.984Z,99.58
2022-11-01T05:53:30.973Z,99.81
2022-11-01T05:56:27.778Z,99.99
2022-11-01T05:59:24.707Z,100.00
2022-11-01T06:02:21.783Z,99.25
2022-11-01T06:05:18.878Z,99.05
2022-11-01T06:08:16.344Z,98.77
2022-11-01T06:11:13.751Z,99.91
2022-11-01T06:14:11.296Z,99.24
2022-11-01T06:17:12.736Z,99.08
2022-11-01T06:20:11.369Z,99.00
2022-11-01T06:23:09.989Z,98.79
2022-11-01T06:26:07.033Z,100.00
2022-11-01T06:29:03.875Z,100.00
2022-11-01T06:32:03.158Z,100.00
2022-11-01T06:35:00.496Z,100.00
2022-11-01T06:38:04.641Z,99.07
2022-11-01T06:41:02.238Z,99.71
2022-11-01T06:44:02.695Z,99.50
2022-11-01T06:46:59.921Z,99.59
2022-11-01T06:49:56.785Z,99.56
2022-11-01T06:52:58.999Z,98.40
2022-11-01T06:55:57.999Z,98.19
2022-11-01T06:58:55.125Z,98.64
2022-11-01T07:01:54.839Z,98.97
2022-11-01T07:04:51.851Z,98.44
2022-11-01T07:07:48.665Z,98.97
2022-11-01T07:10:45.939Z,98.68
2022-11-01T07:13:43.177Z,98.55
2022-11-01T07:16:40.244Z,99.45
2022-11-01T07:19:37.978Z,99.57
2022-11-01T07:22:34.705Z,99.57
2022-11-01T07:25:32.269Z,98.73
2022-11-01T07:28:31.195Z,95.99
2022-11-01T07:31:27.756Z,93.06
2022-11-01T07:34:24.889Z,89.62
2022-11-01T07:37:22.093Z,88.30
2022-11-01T07:40:19.137Z,84.42
2022-11-01T07:43:17.405Z,82.74
2022-11-01T07:46:14.754Z,82.68
2022-11-01T07:49:12.121Z,82.49
2022-11-01T07:52:09.593Z,79.95
2022-11-01T07:55:07.740Z,79.55
2022-11-01T07:58:05.554Z,79.29
2022-11-01T08:01:02.787Z,78.70
2022-11-01T08:03:59.756Z,79.08
2022-11-01T08:06:57.165Z,78.97
2022-11-01T08:09:54.141Z,78.56
2022-11-01T08:12:50.990Z,78.07
2022-11-01T08:15:48.529Z,78.24
2022-11-01T08:18:46.178Z,77.85
2022-11-01T08:21:42.829Z,76.52
2022-11-01T08:24:39.886Z,76.75
2022-11-01T08:27:36.848Z,76.33
2022-11-01T08:30:33.828Z,76.27
2022-11-01T08:33:31.057Z,75.83
2022-11-01T08:36:28.104Z,74.47
2022-11-01T08:39:25.893Z,73.87
2022-11-01T08:42:23.252Z,73.10
2022-11-01T08:45:20.579Z,73.46
2022-11-01T08:48:17.999Z,71.67
2022-11-01T08:51:15.333Z,70.99
2022-11-01T08:54:12.859Z,69.37
2022-11-01T08:57:09.874Z,69.70
2022-11-01T09:00:07.544Z,69.76
2022-11-01T09:03:05.059Z,69.81
2022-11-01T09:06:02.155Z,70.31
2022-11-01T09:08:59.304Z,69.86
2022-11-01T09:11:56.213Z,70.50
2022-11-01T09:14:53.172Z,69.56
2022-11-01T09:17:50.098Z,70.58
2022-11-01T09:20:53.661Z,68.01
2022-11-01T09:23:51.173Z,67.24
2022-11-01T09:26:47.891Z,68.30
2022-11-01T09:29:47.950Z,67.00
2022-11-01T09:32:48.063Z,67.76
2022-11-01T09:35:52.136Z,67.99
2022-11-01T09:38:51.603Z,67.32
2022-11-01T09:42:18.894Z,65.72
2022-11-01T09:45:23.803Z,66.08
2022-11-01T09:48:21.055Z,65.43
2022-11-01T09:51:22.921Z,65.65
2022-11-01T09:54:23.240Z,64.59
2022-11-01T09:57:22.651Z,64.33
2022-11-01T10:00:20.265Z,65.21
2022-11-01T10:03:22.710Z,65.49
2022-11-01T10:06:47.857Z,65.67
2022-11-01T10:09:52.852Z,64.93
2022-11-01T10:13:20.486Z,66.52
2022-11-01T10:16:29.986Z,65.38
2022-11-01T10:19:33.217Z,64.42
2022-11-01T10:22:34.266Z,64.90
2022-11-01T10:25:33.047Z,65.63
2022-11-01T10:28:49.691Z,65.79
2022-11-01T10:31:48.584Z,65.75
2022-11-01T10:34:46.159Z,65.90
2022-11-01T10:37:57.453Z,65.72
2022-11-01T10:41:09.855Z,65.42
2022-11-01T10:44:11.750Z,65.17
2022-11-01T10:47:15.360Z,64.48
2022-11-01T10:50:11.974Z,65.12
2022-11-01T10:53:11.680Z,65.96
2022-11-01T10:56:10.083Z,64.90
2022-11-01T10:59:10.177Z,64.48
2022-11-01T11:02:24.900Z,63.21
2022-11-01T11:05:23.058Z,64.24
2022-11-01T11:08:22.756Z,65.33
2022-11-01T11:11:40.787Z,65.46
2022-11-01T11:14:38.156Z,66.92
2022-11-01T11:17:36.187Z,66.30
2022-11-01T11:20:34.849Z,65.93
2022-11-01T11:23:36.286Z,67.28
2022-11-01T11:26:38.865Z,65.70
2022-11-01T11:29:41.099Z,67.23
2022-11-01T11:32:42.099Z,65.56
2022-11-01T11:35:40.122Z,64.71
2022-11-01T11:38:47.835Z,64.91
2022-11-01T11:41:47.225Z,63.36
2022-11-01T11:44:51.946Z,62.91
2022-11-01T11:47:53.173Z,63.39
2022-11-01T11:50:49.839Z,63.41
2022-11-01T11:54:18.053Z,64.65
2022-11-01T11:57:18.293Z,63.86
2022-11-01T12:00:21.642Z,65.14
2022-11-01T12:03:19.245Z,65.37
2022-11-01T12:06:24.032Z,63.54
2022-11-01T12:09:46.641Z,59.52
2022-11-01T12:12:45.470Z,57.42
2022-11-01T12:15:42.939Z,57.42
2022-11-01T12:18:59.915Z,60.83
2022-11-01T12:21:58.459Z,62.83
2022-11-01T12:24:55.039Z,63.74
2022-11-01T12:27:58.879Z,64.24
2022-11-01T12:30:58.296Z,63.80
2022-11-01T12:33:54.935Z,63.92
2022-11-01T12:37:14.461Z,63.71
2022-11-01T12:40:12.021Z,64.29
2022-11-01T12:43:28.474Z,62.77
2022-11-01T12:46:39.443Z,63.59
2022-11-01T12:49:55.816Z,62.84
2022-11-01T12:53:08.189Z,63.64
2022-11-01T12:56:05.449Z,62.41
2022-11-01T12:59:02.306Z,63.50
2022-11-01T13:02:08.271Z,63.43
2022-11-01T13:05:55.286Z,63.07
2022-11-01T13:09:33.965Z,63.56
2022-11-01T13:12:34.377Z,64.17
2022-11-01T13:15:48.716Z,64.77
2022-11-01T13:18:54.136Z,62.40
2022-11-01T13:21:55.023Z,58.86
2022-11-01T13:25:06.389Z,56.39
2022-11-01T13:28:08.934Z,55.49
2022-11-01T13:31:30.896Z,55.45
2022-11-01T13:35:16.034Z,55.53
2022-11-01T13:38:19.320Z,58.01
2022-11-01T13:41:19.837Z,59.35
2022-11-01T13:44:19.566Z,59.81
2022-11-01T13:51:03.752Z,62.50
2022-11-01T13:54:01.219Z,62.86
2022-11-01T13:57:12.309Z,63.15
2022-11-01T14:00:35.940Z,64.35
2022-11-01T14:03:33.613Z,64.57
2022-11-01T14:06:36.691Z,65.02
2022-11-01T14:09:40.395Z,65.49
2022-11-01T14:12:36.896Z,63.62
2022-11-01T14:15:36.742Z,65.39
2022-11-01T14:19:02.792Z,65.70
2022-11-01T14:22:00.711Z,65.61
2022-11-01T14:25:24.408Z,65.75
2022-11-01T14:28:21.286Z,64.98
2022-11-01T14:31:19.351Z,63.29
2022-11-01T14:34:28.105Z,64.93
2022-11-01T14:37:35.624Z,65.70
2022-11-01T14:40:57.536Z,65.86
2022-11-01T14:43:56.471Z,68.04
2022-11-01T14:46:54.556Z,68.28
2022-11-01T14:49:52.455Z,67.40
2022-11-01T14:52:58.420Z,67.12
2022-11-01T14:56:12.620Z,68.09
2022-11-01T14:59:12.987Z,68.13
2022-11-01T15:02:10.369Z,68.46
2022-11-01T15:05:16.842Z,68.60
2022-11-01T15:08:30.938Z,67.71
2022-11-01T15:11:32.776Z,67.77
2022-11-01T15:14:43.062Z,67.13
2022-11-01T15:17:40.465Z,68.40
2022-11-01T15:20:39.274Z,68.25
2022-11-01T15:23:37.265Z,68.34
2022-11-01T15:26:34.468Z,67.97
2022-11-01T15:29:31.944Z,67.72
2022-11-01T15:32:30.862Z,68.68
2022-11-01T15:35:28.341Z,68.78
2022-11-01T15:38:24.917Z,68.93
2022-11-01T15:41:27.374Z,70.07
2022-11-01T15:44:25.725Z,69.70
2022-11-01T15:47:26.207Z,70.71
2022-11-01T15:50:23.237Z,70.76
2022-11-01T15:53:22.366Z,70.49
2022-11-01T15:56:23.972Z,71.38
2022-11-01T15:59:31.132Z,71.03
2022-11-01T16:02:35.379Z,71.25
2022-11-01T16:05:35.480Z,71.27
2022-11-01T16:08:35.538Z,71.79
2022-11-01T16:11:32.688Z,70.54
2022-11-01T16:14:37.303Z,69.60
2022-11-01T16:17:40.310Z,70.39
2022-11-01T16:20:40.454Z,70.41
2022-11-01T16:23:37.167Z,72.33
2022-11-01T16:26:34.292Z,71.21
2022-11-01T16:29:38.503Z,71.18
2022-11-01T16:32:36.093Z,71.36
2022-11-01T16:35:35.419Z,72.29
2022-11-01T16:38:38.196Z,71.19
2022-11-01T16:41:41.136Z,71.61
2022-11-01T16:44:39.696Z,72.47
2022-11-01T16:47:37.089Z,72.19
2022-11-01T16:50:34.485Z,72.33
2022-11-01T16:53:33.659Z,71.26
2022-11-01T16:56:37.333Z,72.12
2022-11-01T16:59:36.863Z,74.51
2022-11-01T17:02:34.930Z,74.69
2022-11-01T17:05:32.636Z,75.55
2022-11-01T17:08:29.810Z,74.53
2022-11-01T17:11:27.525Z,74.85
2022-11-01T17:14:24.503Z,76.17
2022-11-01T17:17:24.648Z,75.35
2022-11-01T17:20:26.472Z,75.85
2022-11-01T17:23:24.016Z,76.66
2022-11-01T17:26:23.773Z,75.51
2022-11-01T17:29:21.148Z,75.27
2022-11-01T17:32:18.941Z,74.83
2022-11-01T17:35:16.517Z,75.21
2022-11-01T17:38:32.049Z,74.87
2022-11-01T17:41:29.215Z,74.97
2022-11-01T17:44:26.652Z,74.76
2022-11-01T17:47:23.193Z,74.74
2022-11-01T17:50:20.284Z,74.28
2022-11-01T17:53:17.536Z,73.42
2022-11-01T17:56:14.445Z,72.28
2022-11-01T17:59:11.119Z,71.99
2022-11-01T18:02:09.968Z,71.86
2022-11-01T18:05:08.740Z,72.88
2022-11-01T18:08:14.682Z,73.33
2022-11-01T18:11:13.392Z,73.30
2022-11-01T18:14:37.019Z,72.93
2022-11-01T18:17:56.722Z,73.19
2022-11-01T18:21:31.860Z,71.57
2022-11-01T18:24:50.437Z,71.18
2022-11-01T18:27:47.309Z,71.51
2022-11-01T18:30:51.429Z,72.33
2022-11-01T18:34:20.735Z,71.68
2022-11-01T18:37:19.015Z,72.48
2022-11-01T18:40:24.677Z,72.05
2022-11-01T18:43:21.682Z,73.92
2022-11-01T18:46:25.803Z,74.39
2022-11-01T18:49:27.284Z,74.12
2022-11-01T18:52:24.603Z,72.58
2022-11-01T18:55:21.937Z,73.61
2022-11-01T18:58:24.770Z,74.43
2022-11-01T19:01:32.045Z,75.02
2022-11-01T19:04:30.672Z,75.75
2022-11-01T19:07:39.353Z,75.91
2022-11-01T19:10:42.364Z,77.03
2022-11-01T19:13:39.531Z,76.59
2022-11-01T19:16:36.998Z,77.11
2022-11-01T19:19:34.784Z,77.17
2022-11-01T19:22:39.085Z,77.05
2022-11-01T19:25:36.533Z,75.24
2022-11-01T19:28:38.466Z,74.92
2022-11-01T19:31:38.860Z,75.31
2022-11-01T19:34:37.520Z,74.79
2022-11-01T19:37:40.960Z,74.22
2022-11-01T19:40:40.319Z,74.28
2022-11-01T19:43:37.693Z,74.22
2022-11-01T19:46:35.185Z,74.67
2022-11-01T19:49:32.348Z,74.75
2022-11-01T19:52:35.604Z,74.09
2022-11-01T19:55:51.073Z,73.96
2022-11-01T19:58:53.748Z,73.91
2022-11-01T20:01:50.497Z,74.11
2022-11-01T20:04:51.846Z,73.12
2022-11-01T20:07:49.948Z,72.93
2022-11-01T20:10:47.764Z,74.27
2022-11-01T20:13:44.988Z,74.13
2022-11-01T20:16:42.456Z,74.09
2022-11-01T20:19:39.289Z,74.02
2022-11-01T20:22:37.690Z,74.11
2022-11-01T20:25:34.485Z,74.56
2022-11-01T20:28:31.886Z,75.77
2022-11-01T20:31:28.801Z,75.17
2022-11-01T20:34:27.499Z,74.80
2022-11-01T20:37:29.210Z,75.06
2022-11-01T20:40:26.737Z,75.70
2022-11-01T20:43:23.992Z,75.72
2022-11-01T20:46:21.590Z,75.08
2022-11-01T20:49:18.404Z,74.58
2022-11-01T20:55:32.356Z,76.16
2022-11-01T20:58:29.773Z,76.21
2022-11-01T21:01:26.959Z,76.65
2022-11-01T21:04:25.155Z,76.60
2022-11-01T21:07:22.526Z,77.19
2022-11-01T21:10:27.100Z,77.56
2022-11-01T21:13:30.084Z,77.75
2022-11-01T21:16:29.458Z,78.24
2022-11-01T21:19:26.556Z,77.44
2022-11-01T21:22:23.934Z,78.10
2022-11-01T21:25:21.642Z,78.67
2022-11-01T21:28:35.516Z,79.01
2022-11-01T21:31:33.423Z,79.09
2022-11-01T21:34:30.969Z,79.34
2022-11-01T21:37:29.188Z,79.12
2022-11-01T21:40:28.505Z,79.39
2022-11-01T21:43:30.908Z,79.37
2022-11-01T21:46:28.311Z,79.36
2022-11-01T21:49:29.417Z,79.55
2022-11-01T21:52:26.318Z,79.62
2022-11-01T21:55:23.593Z,79.33
2022-11-01T21:58:21.969Z,79.38
2022-11-01T22:01:18.550Z,79.31
2022-11-01T22:04:15.749Z,79.11
2022-11-01T22:07:12.730Z,80.10
2022-11-01T22:10:09.662Z,80.12
2022-11-01T22:13:06.936Z,79.30
2022-11-01T22:16:04.967Z,79.65
2022-11-01T22:19:02.656Z,80.65
2022-11-01T22:21:59.529Z,80.60
2022-11-01T22:24:56.516Z,80.31
2022-11-01T22:27:53.420Z,81.09
2022-11-01T22:30:50.494Z,80.96
2022-11-01T22:33:49.649Z,81.92
2022-11-01T22:36:49.564Z,81.92
2022-11-01T22:39:52.035Z,81.48
2022-11-01T22:42:53.169Z,80.45
2022-11-01T22:45:54.304Z,80.65
2022-11-01T22:48:52.912Z,80.71
2022-11-01T22:51:51.268Z,80.68
2022-11-01T22:54:48.831Z,80.41
2022-11-01T22:58:12.892Z,82.10
2022-11-01T23:01:21.488Z,82.17
2022-11-01T23:04:23.727Z,81.88
2022-11-01T23:07:24.895Z,81.58
2022-11-01T23:10:31.574Z,81.37
2022-11-01T23:13:50.671Z,81.41
2022-11-01T23:16:47.962Z,82.64
2022-11-01T23:19:44.741Z,81.44
2022-11-01T23:22:41.772Z,81.57
2022-11-01T23:25:38.776Z,81.58
2022-11-01T23:28:37.188Z,80.97
2022-11-01T23:31:34.509Z,81.98
2022-11-01T23:34:31.448Z,81.06
2022-11-01T23:37:28.687Z,80.96
2022-11-01T23:40:29.373Z,81.31
2022-11-01T23:43:34.022Z,81.36
2022-11-01T23:46:31.681Z,81.80
2022-11-01T23:49:30.094Z,81.62
2022-11-01T23:52:40.596Z,81.48
2022-11-01T23:55:39.326Z,83.79
2022-11-01T23:58:36.546Z,83.57
